sensor_id;sensor_type;location;lat;lon;timestamp;pressure;altitude;pressure_sealevel;temperature;humidity
47430;BME280;33181;49.246;7.372;2023-11-18T00:01:09;99715.63;;;6.84;100.00
47430;BME280;33181;49.246;7.372;2023-11-18T00:03:35;99718.00;;;6.89;100.00
47430;BME280;33181;49.246;7.372;2023-11-18T00:06:00;99715.34;;;6.90;100.00
47430;BME280;33181;49.246;7.372;2023-11-18T00:08:26;99715.63;;;6.84;100.00
47430;BME280;33181;49.246;7.372;2023-11-18T00:10:52;99723.03;;;6.74;100.00
47430;BME280;33181;49.246;7.372;2023-11-18T00:13:18;99718.75;;;6.73;100.00
47430;BME280;33181;49.246;7.372;2023-11-18T00:15:43;99715.41;;;6.71;100.00
47430;BME280;33181;49.246;7.372;2023-11-18T00:18:12;99718.16;;;6.86;100.00
47430;BME280;33181;49.246;7.372;2023-11-18T00:20:37;99717.69;;;6.95;100.00
47430;BME280;33181;49.246;7.372;2023-11-18T00:23:03;99714.94;;;6.98;100.00
47430;BME280;33181;49.246;7.372;2023-11-18T00:25:31;99709.03;;;6.94;100.00
47430;BME280;33181;49.246;7.372;2023-11-18T00:28:00;99703.41;;;6.85;100.00
47430;BME280;33181;49.246;7.372;2023-11-18T00:30:26;99697.66;;;6.78;100.00
47430;BME280;33181;49.246;7.372;2023-11-18T00:32:53;99695.25;;;6.56;100.00
47430;BME280;33181;49.246;7.372;2023-11-18T00:35:19;99687.63;;;6.52;100.00
47430;BME280;33181;49.246;7.372;2023-11-18T00:37:45;99685.03;;;6.52;100.00
47430;BME280;33181;49.246;7.372;2023-11-18T00:40:11;99678.13;;;6.50;100.00
47430;BME280;33181;49.246;7.372;2023-11-18T00:42:37;99682.97;;;6.58;100.00
47430;BME280;33181;49.246;7.372;2023-11-18T00:45:04;99689.75;;;6.62;100.00
47430;BME280;33181;49.246;7.372;2023-11-18T00:47:30;99694.28;;;6.76;100.00
47430;BME280;33181;49.246;7.372;2023-11-18T00:49:56;99690.41;;;6.83;100.00
47430;BME280;33181;49.246;7.372;2023-11-18T00:52:23;99689.97;;;6.92;100.00
47430;BME280;33181;49.246;7.372;2023-11-18T00:54:49;99689.66;;;6.99;100.00
47430;BME280;33181;49.246;7.372;2023-11-18T00:57:15;99688.59;;;6.85;100.00
47430;BME280;33181;49.246;7.372;2023-11-18T00:59:43;99691.19;;;6.85;100.00
47430;BME280;33181;49.246;7.372;2023-11-18T01:02:09;99696.19;;;6.90;100.00
47430;BME280;33181;49.246;7.372;2023-11-18T01:04:35;99686.25;;;6.96;100.00
47430;BME280;33181;49.246;7.372;2023-11-18T01:07:00;99694.34;;;6.92;100.00
47430;BME280;33181;49.246;7.372;2023-11-18T01:09:28;99694.44;;;6.90;100.00
47430;BME280;33181;49.246;7.372;2023-11-18T01:11:54;99687.44;;;6.91;100.00
47430;BME280;33181;49.246;7.372;2023-11-18T01:14:20;99693.41;;;6.93;100.00
47430;BME280;33181;49.246;7.372;2023-11-18T01:16:48;99684.22;;;7.03;100.00
47430;BME280;33181;49.246;7.372;2023-11-18T01:19:16;99681.28;;;7.09;100.00
47430;BME280;33181;49.246;7.372;2023-11-18T01:21:43;99675.13;;;6.93;100.00
47430;BME280;33181;49.246;7.372;2023-11-18T01:24:09;99679.06;;;6.84;100.00
47430;BME280;33181;49.246;7.372;2023-11-18T01:26:35;99678.44;;;6.79;100.00
47430;BME280;33181;49.246;7.372;2023-11-18T01:29:02;99683.03;;;6.74;100.00
47430;BME280;33181;49.246;7.372;2023-11-18T01:31:29;99681.81;;;6.64;100.00
47430;BME280;33181;49.246;7.372;2023-11-18T01:33:54;99683.44;;;6.66;100.00
47430;BME280;33181;49.246;7.372;2023-11-18T01:36:21;99685.97;;;6.68;100.00
47430;BME280;33181;49.246;7.372;2023-11-18T01:38:47;99681.47;;;6.71;100.00
47430;BME280;33181;49.246;7.372;2023-11-18T01:41:13;99680.91;;;6.82;100.00
47430;BME280;33181;49.246;7.372;2023-11-18T01:43:39;99679.50;;;6.92;100.00
47430;BME280;33181;49.246;7.372;2023-11-18T01:46:08;99674.91;;;6.97;100.00
47430;BME280;33181;49.246;7.372;2023-11-18T01:48:37;99681.19;;;6.93;100.00
47430;BME280;33181;49.246;7.372;2023-11-18T01:51:05;99679.97;;;7.01;100.00
47430;BME280;33181;49.246;7.372;2023-11-18T01:53:34;99685.66;;;7.09;100.00
47430;BME280;33181;49.246;7.372;2023-11-18T01:56:02;99686.09;;;7.00;100.00
47430;BME280;33181;49.246;7.372;2023-11-18T01:58:31;99692.28;;;6.99;100.00
47430;BME280;33181;49.246;7.372;2023-11-18T02:00:57;99703.81;;;6.94;100.00
47430;BME280;33181;49.246;7.372;2023-11-18T02:03:23;99706.78;;;6.87;100.00
47430;BME280;33181;49.246;7.372;2023-11-18T02:05:49;99704.41;;;6.82;100.00
47430;BME280;33181;49.246;7.372;2023-11-18T02:08:17;99706.69;;;6.71;100.00
47430;BME280;33181;49.246;7.372;2023-11-18T02:11:01;99706.69;;;6.54;100.00
47430;BME280;33181;49.246;7.372;2023-11-18T02:13:37;99708.59;;;6.50;100.00
47430;BME280;33181;49.246;7.372;2023-11-18T02:16:08;99708.59;;;6.50;100.00
47430;BME280;33181;49.246;7.372;2023-11-18T02:18:35;99704.84;;;6.56;100.00
47430;BME280;33181;49.246;7.372;2023-11-18T02:21:07;99702.53;;;6.49;100.00
47430;BME280;33181;49.246;7.372;2023-11-18T02:23:36;99702.06;;;6.41;100.00
47430;BME280;33181;49.246;7.372;2023-11-18T02:26:03;99699.25;;;6.27;100.00
47430;BME280;33181;49.246;7.372;2023-11-18T02:28:31;99701.03;;;6.26;100.00
47430;BME280;33181;49.246;7.372;2023-11-18T02:31:16;99708.41;;;6.36;100.00
47430;BME280;33181;49.246;7.372;2023-11-18T02:34:02;99706.34;;;6.42;100.00
47430;BME280;33181;49.246;7.372;2023-11-18T02:36:39;99700.22;;;6.43;100.00
47430;BME280;33181;49.246;7.372;2023-11-18T02:39:25;99694.00;;;6.46;100.00
47430;BME280;33181;49.246;7.372;2023-11-18T02:41:54;99697.97;;;6.36;100.00
47430;BME280;33181;49.246;7.372;2023-11-18T02:44:22;99698.06;;;6.34;100.00
47430;BME280;33181;49.246;7.372;2023-11-18T02:46:51;99702.50;;;6.32;100.00
47430;BME280;33181;49.246;7.372;2023-11-18T02:49:16;99699.06;;;6.32;100.00
47430;BME280;33181;49.246;7.372;2023-11-18T02:51:43;99692.84;;;6.34;100.00
47430;BME280;33181;49.246;7.372;2023-11-18T02:54:13;99698.25;;;6.30;100.00
47430;BME280;33181;49.246;7.372;2023-11-18T02:56:39;99697.25;;;6.15;100.00
47430;BME280;33181;49.246;7.372;2023-11-18T02:59:05;99708.25;;;6.21;100.00
47430;BME280;33181;49.246;7.372;2023-11-18T03:01:32;99710.75;;;6.23;100.00
47430;BME280;33181;49.246;7.372;2023-11-18T03:04:00;99714.44;;;6.19;100.00
47430;BME280;33181;49.246;7.372;2023-11-18T03:06:26;99719.94;;;6.32;100.00
47430;BME280;33181;49.246;7.372;2023-11-18T03:08:52;99719.53;;;6.39;100.00
47430;BME280;33181;49.246;7.372;2023-11-18T03:11:19;99714.13;;;6.44;100.00
47430;BME280;33181;49.246;7.372;2023-11-18T03:13:45;99709.44;;;6.50;100.00
47430;BME280;33181;49.246;7.372;2023-11-18T03:16:14;99711.75;;;6.57;100.00
47430;BME280;33181;49.246;7.372;2023-11-18T03:18:41;99707.16;;;6.62;100.00
47430;BME280;33181;49.246;7.372;2023-11-18T03:21:14;99712.38;;;6.62;100.00
47430;BME280;33181;49.246;7.372;2023-11-18T03:23:41;99701.78;;;6.65;100.00
47430;BME280;33181;49.246;7.372;2023-11-18T03:26:08;99699.41;;;6.60;100.00
47430;BME280;33181;49.246;7.372;2023-11-18T03:28:34;99692.25;;;6.64;100.00
47430;BME280;33181;49.246;7.372;2023-11-18T03:31:05;99691.63;;;6.59;100.00
47430;BME280;33181;49.246;7.372;2023-11-18T03:33:31;99693.09;;;6.64;100.00
47430;BME280;33181;49.246;7.372;2023-11-18T03:35:57;99685.13;;;6.67;100.00
47430;BME280;33181;49.246;7.372;2023-11-18T03:38:23;99692.06;;;6.68;100.00
47430;BME280;33181;49.246;7.372;2023-11-18T03:40:50;99693.50;;;6.74;100.00
47430;BME280;33181;49.246;7.372;2023-11-18T03:43:18;99690.72;;;6.77;100.00
47430;BME280;33181;49.246;7.372;2023-11-18T03:45:44;99700.34;;;6.77;100.00
47430;BME280;33181;49.246;7.372;2023-11-18T03:48:09;99698.19;;;6.67;100.00
47430;BME280;33181;49.246;7.372;2023-11-18T03:50:42;99695.50;;;6.69;100.00
47430;BME280;33181;49.246;7.372;2023-11-18T03:53:11;99701.31;;;6.74;100.00
47430;BME280;33181;49.246;7.372;2023-11-18T03:55:37;99699.25;;;6.81;100.00
47430;BME280;33181;49.246;7.372;2023-11-18T03:58:02;99700.56;;;6.89;100.00
47430;BME280;33181;49.246;7.372;2023-11-18T04:00:28;99692.72;;;6.89;100.00
47430;BME280;33181;49.246;7.372;2023-11-18T04:03:01;99697.19;;;6.87;100.00
47430;BME280;33181;49.246;7.372;2023-11-18T04:05:27;99698.72;;;6.91;100.00
47430;BME280;33181;49.246;7.372;2023-11-18T04:07:52;99691.66;;;6.93;100.00
47430;BME280;33181;49.246;7.372;2023-11-18T04:10:18;99684.44;;;6.99;100.00
47430;BME280;33181;49.246;7.372;2023-11-18T04:12:45;99675.75;;;6.98;100.00
47430;BME280;33181;49.246;7.372;2023-11-18T04:15:14;99677.59;;;6.96;100.00
47430;BME280;33181;49.246;7.372;2023-11-18T04:17:41;99678.38;;;6.98;100.00
47430;BME280;33181;49.246;7.372;2023-11-18T04:20:09;99673.66;;;7.05;100.00
47430;BME280;33181;49.246;7.372;2023-11-18T04:22:43;99673.81;;;7.02;100.00
47430;BME280;33181;49.246;7.372;2023-11-18T04:25:15;99681.53;;;6.87;100.00
47430;BME280;33181;49.246;7.372;2023-11-18T04:27:41;99679.59;;;6.73;100.00
47430;BME280;33181;49.246;7.372;2023-11-18T04:30:07;99673.84;;;6.84;100.00
47430;BME280;33181;49.246;7.372;2023-11-18T04:32:34;99669.91;;;6.93;100.00
47430;BME280;33181;49.246;7.372;2023-11-18T04:35:00;99670.75;;;6.93;100.00
47430;BME280;33181;49.246;7.372;2023-11-18T04:37:33;99663.63;;;6.97;100.00
47430;BME280;33181;49.246;7.372;2023-11-18T04:40:00;99661.69;;;7.01;100.00
47430;BME280;33181;49.246;7.372;2023-11-18T04:42:26;99662.69;;;6.98;100.00
47430;BME280;33181;49.246;7.372;2023-11-18T04:44:56;99662.69;;;6.98;100.00
47430;BME280;33181;49.246;7.372;2023-11-18T04:47:22;99668.44;;;7.05;100.00
47430;BME280;33181;49.246;7.372;2023-11-18T04:49:47;99663.84;;;6.92;100.00
47430;BME280;33181;49.246;7.372;2023-11-18T04:52:13;99666.16;;;6.99;100.00
47430;BME280;33181;49.246;7.372;2023-11-18T04:54:39;99662.59;;;7.00;100.00
47430;BME280;33181;49.246;7.372;2023-11-18T04:57:05;99664.16;;;7.04;100.00
47430;BME280;33181;49.246;7.372;2023-11-18T04:59:32;99662.22;;;7.07;100.00
47430;BME280;33181;49.246;7.372;2023-11-18T05:01:57;99658.47;;;6.95;100.00
47430;BME280;33181;49.246;7.372;2023-11-18T05:04:23;99654.59;;;7.03;100.00
47430;BME280;33181;49.246;7.372;2023-11-18T05:06:49;99662.13;;;7.09;100.00
47430;BME280;33181;49.246;7.372;2023-11-18T05:09:15;99661.81;;;7.15;100.00
47430;BME280;33181;49.246;7.372;2023-11-18T05:11:43;99666.03;;;7.17;100.00
47430;BME280;33181;49.246;7.372;2023-11-18T05:14:10;99654.59;;;7.20;100.00
47430;BME280;33181;49.246;7.372;2023-11-18T05:16:36;99654.66;;;7.18;100.00
47430;BME280;33181;49.246;7.372;2023-11-18T05:19:02;99646.75;;;7.20;100.00
47430;BME280;33181;49.246;7.372;2023-11-18T05:21:28;99647.75;;;7.17;100.00
47430;BME280;33181;49.246;7.372;2023-11-18T05:23:55;99636.16;;;7.06;100.00
47430;BME280;33181;49.246;7.372;2023-11-18T05:26:20;99645.47;;;7.11;100.00
47430;BME280;33181;49.246;7.372;2023-11-18T05:28:46;99644.63;;;7.11;100.00
47430;BME280;33181;49.246;7.372;2023-11-18T05:31:13;99635.63;;;7.16;100.00
47430;BME280;33181;49.246;7.372;2023-11-18T05:33:39;99632.59;;;7.24;100.00
47430;BME280;33181;49.246;7.372;2023-11-18T05:36:05;99639.59;;;7.24;100.00
47430;BME280;33181;49.246;7.372;2023-11-18T05:38:31;99634.97;;;7.29;100.00
47430;BME280;33181;49.246;7.372;2023-11-18T05:41:00;99632.94;;;7.34;100.00
47430;BME280;33181;49.246;7.372;2023-11-18T05:43:31;99623.00;;;7.40;100.00
47430;BME280;33181;49.246;7.372;2023-11-18T05:46:06;99619.34;;;7.45;100.00
47430;BME280;33181;49.246;7.372;2023-11-18T05:48:46;99622.63;;;7.48;100.00
47430;BME280;33181;49.246;7.372;2023-11-18T05:51:13;99628.59;;;7.50;100.00
47430;BME280;33181;49.246;7.372;2023-11-18T05:53:42;99634.53;;;7.54;100.00
47430;BME280;33181;49.246;7.372;2023-11-18T05:56:11;99632.66;;;7.56;100.00
47430;BME280;33181;49.246;7.372;2023-11-18T05:58:37;99631.03;;;7.53;100.00
47430;BME280;33181;49.246;7.372;2023-11-18T06:01:05;99630.03;;;7.56;100.00
47430;BME280;33181;49.246;7.372;2023-11-18T06:03:34;99618.38;;;7.30;100.00
47430;BME280;33181;49.246;7.372;2023-11-18T06:06:14;99623.84;;;7.25;100.00
47430;BME280;33181;49.246;7.372;2023-11-18T06:08:42;99616.75;;;7.27;100.00
47430;BME280;33181;49.246;7.372;2023-11-18T06:11:12;99620.09;;;7.13;100.00
47430;BME280;33181;49.246;7.372;2023-11-18T06:13:47;99619.94;;;7.16;100.00
47430;BME280;33181;49.246;7.372;2023-11-18T06:16:19;99621.63;;;7.17;100.00
47430;BME280;33181;49.246;7.372;2023-11-18T06:18:57;99616.09;;;7.24;100.00
47430;BME280;33181;49.246;7.372;2023-11-18T06:21:25;99608.97;;;7.10;100.00
47430;BME280;33181;49.246;7.372;2023-11-18T06:23:56;99605.69;;;7.06;100.00
47430;BME280;33181;49.246;7.372;2023-11-18T06:26:21;99605.91;;;7.02;100.00
47430;BME280;33181;49.246;7.372;2023-11-18T06:28:48;99604.66;;;7.09;100.00
47430;BME280;33181;49.246;7.372;2023-11-18T06:31:17;99617.72;;;7.09;100.00
47430;BME280;33181;49.246;7.372;2023-11-18T06:33:44;99607.44;;;7.06;100.00
47430;BME280;33181;49.246;7.372;2023-11-18T06:38:40;99621.00;;;7.12;100.00
47430;BME280;33181;49.246;7.372;2023-11-18T06:41:06;99631.25;;;7.17;100.00
47430;BME280;33181;49.246;7.372;2023-11-18T06:43:38;99625.84;;;7.20;100.00
47430;BME280;33181;49.246;7.372;2023-11-18T06:46:29;99628.16;;;7.09;100.00
47430;BME280;33181;49.246;7.372;2023-11-18T06:48:58;99627.16;;;7.11;100.00
47430;BME280;33181;49.246;7.372;2023-11-18T06:51:26;99624.09;;;7.20;100.00
47430;BME280;33181;49.246;7.372;2023-11-18T06:53:53;99613.63;;;7.20;100.00
47430;BME280;33181;49.246;7.372;2023-11-18T06:56:20;99610.00;;;7.23;100.00
47430;BME280;33181;49.246;7.372;2023-11-18T06:58:46;99614.72;;;7.16;100.00
47430;BME280;33181;49.246;7.372;2023-11-18T07:01:13;99621.44;;;7.05;100.00
47430;BME280;33181;49.246;7.372;2023-11-18T07:03:41;99627.16;;;7.11;100.00
47430;BME280;33181;49.246;7.372;2023-11-18T07:06:08;99627.69;;;7.18;100.00
47430;BME280;33181;49.246;7.372;2023-11-18T07:08:35;99635.00;;;7.11;100.00
47430;BME280;33181;49.246;7.372;2023-11-18T07:11:02;99638.66;;;7.25;100.00
47430;BME280;33181;49.246;7.372;2023-11-18T07:13:29;99629.75;;;7.29;100.00
47430;BME280;33181;49.246;7.372;2023-11-18T07:15:55;99619.81;;;7.35;100.00
47430;BME280;33181;49.246;7.372;2023-11-18T07:18:23;99607.94;;;7.46;100.00
47430;BME280;33181;49.246;7.372;2023-11-18T07:20:49;99604.97;;;7.36;100.00
47430;BME280;33181;49.246;7.372;2023-11-18T07:23:18;99604.88;;;7.37;100.00
47430;BME280;33181;49.246;7.372;2023-11-18T07:25:45;99605.75;;;7.38;100.00
47430;BME280;33181;49.246;7.372;2023-11-18T07:28:12;99608.28;;;7.39;100.00
47430;BME280;33181;49.246;7.372;2023-11-18T07:30:43;99606.66;;;7.37;100.00
47430;BME280;33181;49.246;7.372;2023-11-18T07:33:14;99615.88;;;7.44;100.00
47430;BME280;33181;49.246;7.372;2023-11-18T07:35:40;99622.28;;;7.54;100.00
47430;BME280;33181;49.246;7.372;2023-11-18T07:38:06;99621.97;;;7.60;100.00
47430;BME280;33181;49.246;7.372;2023-11-18T07:40:33;99613.63;;;7.70;100.00
47430;BME280;33181;49.246;7.372;2023-11-18T07:43:00;99627.09;;;7.78;100.00
47430;BME280;33181;49.246;7.372;2023-11-18T07:45:34;99632.16;;;7.81;100.00
47430;BME280;33181;49.246;7.372;2023-11-18T07:47:59;99632.00;;;7.84;100.00
47430;BME280;33181;49.246;7.372;2023-11-18T07:50:25;99626.25;;;7.93;100.00
47430;BME280;33181;49.246;7.372;2023-11-18T07:52:52;99612.84;;;7.99;100.00
47430;BME280;33181;49.246;7.372;2023-11-18T07:55:17;99612.56;;;8.04;100.00
47430;BME280;33181;49.246;7.372;2023-11-18T07:57:43;99596.78;;;8.05;100.00
47430;BME280;33181;49.246;7.372;2023-11-18T08:00:10;99587.34;;;8.03;100.00
47430;BME280;33181;49.246;7.372;2023-11-18T08:02:37;99600.06;;;8.09;100.00
47430;BME280;33181;49.246;7.372;2023-11-18T08:05:03;99606.63;;;8.16;100.00
47430;BME280;33181;49.246;7.372;2023-11-18T08:07:35;99613.13;;;8.25;100.00
47430;BME280;33181;49.246;7.372;2023-11-18T08:10:02;99614.56;;;8.30;100.00
47430;BME280;33181;49.246;7.372;2023-11-18T08:12:32;99607.19;;;8.37;99.69
47430;BME280;33181;49.246;7.372;2023-11-18T08:14:59;99605.41;;;8.38;98.50
47430;BME280;33181;49.246;7.372;2023-11-18T08:17:26;99607.16;;;8.39;98.34
47430;BME280;33181;49.246;7.372;2023-11-18T08:19:55;99605.41;;;8.38;98.47
47430;BME280;33181;49.246;7.372;2023-11-18T08:22:22;99594.91;;;8.39;99.26
47430;BME280;33181;49.246;7.372;2023-11-18T08:24:49;99597.50;;;8.39;97.01
47430;BME280;33181;49.246;7.372;2023-11-18T08:27:16;99602.56;;;8.42;97.62
47430;BME280;33181;49.246;7.372;2023-11-18T08:29:41;99595.09;;;8.50;97.89
47430;BME280;33181;49.246;7.372;2023-11-18T08:32:08;99599.41;;;8.51;98.52
47430;BME280;33181;49.246;7.372;2023-11-18T08:34:38;99591.38;;;8.54;98.36
47430;BME280;33181;49.246;7.372;2023-11-18T08:37:07;99585.59;;;8.64;98.55
47430;BME280;33181;49.246;7.372;2023-11-18T08:39:33;99584.66;;;8.65;98.41
47430;BME280;33181;49.246;7.372;2023-11-18T08:41:58;99587.75;;;8.71;98.43
47430;BME280;33181;49.246;7.372;2023-11-18T08:44:24;99595.44;;;8.74;97.45
47430;BME280;33181;49.246;7.372;2023-11-18T08:46:53;99584.59;;;8.80;97.70
47430;BME280;33181;49.246;7.372;2023-11-18T08:49:19;99597.34;;;8.87;97.44
47430;BME280;33181;49.246;7.372;2023-11-18T08:51:48;99590.88;;;8.92;97.12
47430;BME280;33181;49.246;7.372;2023-11-18T08:54:15;99588.28;;;8.92;94.75
47430;BME280;33181;49.246;7.372;2023-11-18T08:57:10;99584.66;;;8.79;95.77
47430;BME280;33181;49.246;7.372;2023-11-18T08:59:50;99589.19;;;8.77;93.76
47430;BME280;33181;49.246;7.372;2023-11-18T09:02:18;99585.28;;;8.54;94.08
47430;BME280;33181;49.246;7.372;2023-11-18T09:04:51;99593.63;;;8.61;94.77
47430;BME280;33181;49.246;7.372;2023-11-18T09:07:18;99586.44;;;8.64;93.82
47430;BME280;33181;49.246;7.372;2023-11-18T09:09:44;99597.84;;;8.63;93.78
47430;BME280;33181;49.246;7.372;2023-11-18T09:12:12;99602.22;;;8.48;94.17
47430;BME280;33181;49.246;7.372;2023-11-18T09:14:40;99603.53;;;8.55;95.14
47430;BME280;33181;49.246;7.372;2023-11-18T09:17:08;99611.59;;;8.67;94.57
47430;BME280;33181;49.246;7.372;2023-11-18T09:19:34;99612.66;;;8.78;94.34
47430;BME280;33181;49.246;7.372;2023-11-18T09:22:00;99595.16;;;8.79;93.86
47430;BME280;33181;49.246;7.372;2023-11-18T09:24:26;99600.38;;;8.65;93.53
47430;BME280;33181;49.246;7.372;2023-11-18T09:26:52;99602.53;;;8.58;93.84
47430;BME280;33181;49.246;7.372;2023-11-18T09:29:18;99615.63;;;8.58;93.65
47430;BME280;33181;49.246;7.372;2023-11-18T09:31:47;99609.06;;;8.65;93.70
47430;BME280;33181;49.246;7.372;2023-11-18T09:34:15;99615.16;;;8.66;93.41
47430;BME280;33181;49.246;7.372;2023-11-18T09:36:43;99624.63;;;8.68;93.59
47430;BME280;33181;49.246;7.372;2023-11-18T09:39:10;99631.72;;;8.66;93.39
47430;BME280;33181;49.246;7.372;2023-11-18T09:41:57;99635.22;;;8.51;93.75
47430;BME280;33181;49.246;7.372;2023-11-18T09:44:28;99634.59;;;8.62;93.64
47430;BME280;33181;49.246;7.372;2023-11-18T09:46:57;99620.69;;;8.61;93.28
47430;BME280;33181;49.246;7.372;2023-11-18T09:49:32;99629.44;;;8.60;93.73
47430;BME280;33181;49.246;7.372;2023-11-18T09:52:05;99629.63;;;8.57;93.37
47430;BME280;33181;49.246;7.372;2023-11-18T10:00:06;99626.63;;;8.49;93.89
47430;BME280;33181;49.246;7.372;2023-11-18T10:02:58;99622.88;;;8.53;94.04
47430;BME280;33181;49.246;7.372;2023-11-18T10:05:27;99630.25;;;8.46;94.31
47430;BME280;33181;49.246;7.372;2023-11-18T10:07:55;99627.38;;;8.35;94.13
47430;BME280;33181;49.246;7.372;2023-11-18T10:10:26;99637.94;;;8.33;94.72
47430;BME280;33181;49.246;7.372;2023-11-18T10:13:02;99625.38;;;8.40;94.65
47430;BME280;33181;49.246;7.372;2023-11-18T10:15:30;99627.88;;;8.42;94.27
47430;BME280;33181;49.246;7.372;2023-11-18T10:17:57;99629.84;;;8.38;94.23
47430;BME280;33181;49.246;7.372;2023-11-18T10:20:48;99627.50;;;8.18;94.92
47430;BME280;33181;49.246;7.372;2023-11-18T10:23:20;99625.72;;;8.18;95.44
47430;BME280;33181;49.246;7.372;2023-11-18T10:25:56;99615.19;;;8.20;96.07
47430;BME280;33181;49.246;7.372;2023-11-18T10:28:36;99611.13;;;8.14;96.34
47430;BME280;33181;49.246;7.372;2023-11-18T10:31:07;99611.78;;;8.18;96.40
47430;BME280;33181;49.246;7.372;2023-11-18T10:33:36;99603.31;;;8.28;96.46
47430;BME280;33181;49.246;7.372;2023-11-18T10:36:04;99600.31;;;8.20;96.21
47430;BME280;33181;49.246;7.372;2023-11-18T10:38:32;99605.56;;;8.04;96.13
47430;BME280;33181;49.246;7.372;2023-11-18T10:41:02;99595.00;;;8.06;97.15
47430;BME280;33181;49.246;7.372;2023-11-18T10:43:28;99589.59;;;8.09;96.81
47430;BME280;33181;49.246;7.372;2023-11-18T10:46:09;99580.81;;;8.10;96.65
47430;BME280;33181;49.246;7.372;2023-11-18T10:48:48;99574.91;;;8.06;97.18
47430;BME280;33181;49.246;7.372;2023-11-18T10:51:17;99572.97;;;8.10;96.73
47430;BME280;33181;49.246;7.372;2023-11-18T10:53:52;99563.97;;;8.00;97.39
47430;BME280;33181;49.246;7.372;2023-11-18T10:56:22;99552.59;;;8.01;97.77
47430;BME280;33181;49.246;7.372;2023-11-18T10:58:57;99552.00;;;7.96;97.60
47430;BME280;33181;49.246;7.372;2023-11-18T11:01:33;99543.47;;;7.92;98.01
47430;BME280;33181;49.246;7.372;2023-11-18T11:04:00;99547.13;;;7.89;99.16
47430;BME280;33181;49.246;7.372;2023-11-18T11:06:30;99542.69;;;8.06;99.07
47430;BME280;33181;49.246;7.372;2023-11-18T11:08:57;99532.97;;;8.08;98.39
47430;BME280;33181;49.246;7.372;2023-11-18T11:11:35;99521.31;;;8.13;97.81
47430;BME280;33181;49.246;7.372;2023-11-18T11:14:04;99522.53;;;8.22;97.27
47430;BME280;33181;49.246;7.372;2023-11-18T11:16:42;99538.00;;;8.27;96.43
47430;BME280;33181;49.246;7.372;2023-11-18T11:19:33;99534.78;;;8.22;96.15
47430;BME280;33181;49.246;7.372;2023-11-18T11:22:10;99528.84;;;8.34;96.26
47430;BME280;33181;49.246;7.372;2023-11-18T11:25:02;99529.84;;;8.31;96.13
47430;BME280;33181;49.246;7.372;2023-11-18T11:28:12;99526.44;;;8.15;97.06
47430;BME280;33181;49.246;7.372;2023-11-18T11:36:02;99530.56;;;8.19;98.28
47430;BME280;33181;49.246;7.372;2023-11-18T11:38:32;99517.88;;;8.27;97.96
47430;BME280;33181;49.246;7.372;2023-11-18T11:40:58;99506.34;;;8.16;98.58
47430;BME280;33181;49.246;7.372;2023-11-18T11:43:27;99497.94;;;8.10;98.64
47430;BME280;33181;49.246;7.372;2023-11-18T11:45:55;99490.63;;;8.01;98.75
47430;BME280;33181;49.246;7.372;2023-11-18T11:48:24;99493.31;;;8.00;99.70
47430;BME280;33181;49.246;7.372;2023-11-18T11:54:26;99480.00;;;8.19;99.82
47430;BME280;33181;49.246;7.372;2023-11-18T11:56:57;99470.31;;;8.21;99.77
47430;BME280;33181;49.246;7.372;2023-11-18T12:02:11;99484.41;;;8.18;98.86
47430;BME280;33181;49.246;7.372;2023-11-18T12:04:47;99470.19;;;8.22;98.96
47430;BME280;33181;49.246;7.372;2023-11-18T12:07:20;99452.84;;;8.35;98.86
47430;BME280;33181;49.246;7.372;2023-11-18T12:09:49;99459.00;;;8.34;98.01
47430;BME280;33181;49.246;7.372;2023-11-18T12:12:21;99453.28;;;8.28;97.20
47430;BME280;33181;49.246;7.372;2023-11-18T12:17:18;99454.25;;;8.27;97.89
47430;BME280;33181;49.246;7.372;2023-11-18T12:19:48;99444.91;;;8.37;97.53
47430;BME280;33181;49.246;7.372;2023-11-18T12:22:19;99444.84;;;8.39;96.69
47430;BME280;33181;49.246;7.372;2023-11-18T12:35:22;99421.28;;;8.53;96.12
47430;BME280;33181;49.246;7.372;2023-11-18T12:41:40;99414.53;;;8.49;95.71
47430;BME280;33181;49.246;7.372;2023-11-18T12:44:29;99406.59;;;8.50;95.19
47430;BME280;33181;49.246;7.372;2023-11-18T12:47:06;99417.13;;;8.63;95.31
47430;BME280;33181;49.246;7.372;2023-11-18T12:49:41;99403.84;;;8.66;95.01
47430;BME280;33181;49.246;7.372;2023-11-18T12:52:11;99398.81;;;8.63;94.81
47430;BME280;33181;49.246;7.372;2023-11-18T12:54:41;99389.34;;;8.61;94.96
47430;BME280;33181;49.246;7.372;2023-11-18T12:57:11;99380.47;;;8.63;94.35
47430;BME280;33181;49.246;7.372;2023-11-18T12:59:41;99370.94;;;8.62;95.01
47430;BME280;33181;49.246;7.372;2023-11-18T13:02:08;99371.72;;;8.64;95.18
47430;BME280;33181;49.246;7.372;2023-11-18T13:04:42;99359.06;;;8.71;95.28
47430;BME280;33181;49.246;7.372;2023-11-18T13:07:08;99350.88;;;8.90;94.96
47430;BME280;33181;49.246;7.372;2023-11-18T13:09:34;99343.97;;;9.01;94.95
47430;BME280;33181;49.246;7.372;2023-11-18T13:12:03;99340.50;;;9.15;95.32
47430;BME280;33181;49.246;7.372;2023-11-18T13:14:34;99328.06;;;9.04;94.77
47430;BME280;33181;49.246;7.372;2023-11-18T13:17:09;99330.25;;;8.98;93.53
47430;BME280;33181;49.246;7.372;2023-11-18T13:19:37;99314.41;;;8.87;94.28
47430;BME280;33181;49.246;7.372;2023-11-18T13:22:10;99304.59;;;8.76;94.62
47430;BME280;33181;49.246;7.372;2023-11-18T13:24:43;99291.81;;;8.71;95.32
47430;BME280;33181;49.246;7.372;2023-11-18T13:27:16;99287.91;;;8.64;96.09
47430;BME280;33181;49.246;7.372;2023-11-18T13:29:47;99291.59;;;8.47;96.73
47430;BME280;33181;49.246;7.372;2023-11-18T13:32:17;99285.31;;;8.50;96.96
47430;BME280;33181;49.246;7.372;2023-11-18T13:34:48;99271.28;;;8.51;97.56
47430;BME280;33181;49.246;7.372;2023-11-18T13:37:14;99265.00;;;8.53;97.65
47430;BME280;33181;49.246;7.372;2023-11-18T13:39:44;99273.66;;;8.68;96.97
47430;BME280;33181;49.246;7.372;2023-11-18T13:42:24;99270.09;;;8.69;96.18
47430;BME280;33181;49.246;7.372;2023-11-18T13:44:51;99268.66;;;8.78;95.76
47430;BME280;33181;49.246;7.372;2023-11-18T13:47:20;99274.28;;;8.86;95.38
47430;BME280;33181;49.246;7.372;2023-11-18T13:49:54;99276.03;;;8.86;95.87
47430;BME280;33181;49.246;7.372;2023-11-18T13:52:20;99281.94;;;8.89;95.31